Time;durP1;ratioP1;P1;durP2;ratioP2;P2;SDS_P1;SDS_P2;PMS_P1;PMS_P2;Temp;Humidity;BMP_temperature;BMP_pressure;BME280_temperature;BME280_humidity;BME280_pressure;Samples;Min_cycle;Max_cycle;Signal;HPM_P1;HPM_P2
2023/06/23 00:00:22;;;;;;;13.48;6.40;;;;;;;21.01;71.96;100787.72;5021493;28;20056;-71
2023/06/23 00:02:48;;;;;;;14.82;6.97;;;;;;;21.00;72.29;100785.97;5021900;28;20506;-71
2023/06/23 00:05:14;;;;;;;14.27;6.50;;;;;;;21.01;72.04;100791.28;5021737;28;20037;-71
2023/06/23 00:07:40;;;;;;;13.98;6.88;;;;;;;21.00;72.57;100791.34;5039803;28;20023;-71
2023/06/23 00:10:06;;;;;;;14.00;6.50;;;;;;;20.99;72.07;100785.13;5039538;28;20119;-71
2023/06/23 00:12:36;;;;;;;13.50;7.43;;;;;;;20.96;72.25;100779.84;5039371;28;20076;-71
2023/06/23 00:15:07;;;;;;;13.70;6.90;;;;;;;20.93;72.17;100778.19;5033547;28;20116;-71
2023/06/23 00:17:33;;;;;;;13.45;6.20;;;;;;;20.89;72.41;100781.94;5039361;28;20057;-71
2023/06/23 00:19:58;;;;;;;13.67;6.63;;;;;;;20.87;72.58;100780.22;5039562;28;20113;-71
2023/06/23 00:22:25;;;;;;;13.13;6.07;;;;;;;20.88;72.29;100777.50;5039580;28;20057;-71
2023/06/23 00:24:50;;;;;;;15.73;6.50;;;;;;;20.85;72.65;100777.59;5039357;28;20268;-71
2023/06/23 00:27:16;;;;;;;16.42;6.75;;;;;;;20.82;72.36;100776.88;5039131;28;20029;-71
2023/06/23 00:29:42;;;;;;;14.53;6.10;;;;;;;20.79;72.54;100780.50;5039294;28;20064;-71
2023/06/23 00:32:07;;;;;;;14.18;6.70;;;;;;;20.77;72.41;100775.22;5039480;28;20056;-71
2023/06/23 00:34:33;;;;;;;15.90;6.80;;;;;;;20.76;72.76;100780.63;5037813;28;20059;-71
2023/06/23 00:36:58;;;;;;;12.33;6.33;;;;;;;20.74;72.41;100785.16;5039232;28;20433;-71
2023/06/23 00:39:23;;;;;;;12.33;6.70;;;;;;;20.75;72.60;100781.53;5038895;28;20034;-71
2023/06/23 00:41:49;;;;;;;13.23;6.30;;;;;;;20.75;72.72;100776.19;5038877;28;20025;-71
2023/06/23 00:44:16;;;;;;;12.83;6.27;;;;;;;20.75;72.61;100770.84;5038907;28;20037;-71
2023/06/23 00:46:43;;;;;;;13.10;6.47;;;;;;;20.78;72.56;100776.06;5021477;28;20025;-71
2023/06/23 00:49:10;;;;;;;15.55;6.22;;;;;;;20.77;72.33;100764.50;5038574;28;20052;-71
2023/06/23 00:51:36;;;;;;;12.53;6.60;;;;;;;20.76;72.25;100772.59;5021250;28;20682;-71
2023/06/23 00:54:03;;;;;;;14.95;6.50;;;;;;;20.73;72.26;100780.72;5020977;28;20033;-71
2023/06/23 00:56:30;;;;;;;9.65;5.78;;;;;;;20.70;72.26;100772.81;5040214;28;20044;-71
2023/06/23 00:58:56;;;;;;;14.75;6.40;;;;;;;20.67;72.65;100778.31;5038043;28;20678;-71
2023/06/23 01:01:22;;;;;;;15.20;6.00;;;;;;;20.66;72.38;100777.41;5020784;28;20059;-71
2023/06/23 01:03:48;;;;;;;12.25;6.65;;;;;;;20.68;72.44;100774.69;5038603;28;20108;-71
2023/06/23 01:06:20;;;;;;;14.00;6.50;;;;;;;20.68;72.48;100764.00;5038589;28;20371;-71
2023/06/23 01:08:57;;;;;;;17.73;6.20;;;;;;;20.65;72.09;100765.84;5038422;28;20025;-71
2023/06/23 01:11:35;;;;;;;14.52;6.57;;;;;;;20.59;72.47;100760.72;5038511;28;20029;-71
2023/06/23 01:14:29;;;;;;;13.90;6.13;;;;;;;20.54;72.12;100757.34;5031993;28;20025;-71
2023/06/23 01:17:05;;;;;;;14.95;6.18;;;;;;;20.53;72.67;100763.63;5017536;28;20064;-71
2023/06/23 01:19:52;;;;;;;14.63;5.83;;;;;;;20.49;72.43;100754.84;5030769;28;20045;-71
2023/06/23 01:22:32;;;;;;;13.60;6.15;;;;;;;20.49;72.46;100748.63;5010182;28;20025;-71
2023/06/23 01:25:33;;;;;;;12.85;6.00;;;;;;;20.48;72.46;100746.88;5037952;28;20082;-71
2023/06/23 01:28:10;;;;;;;11.73;5.68;;;;;;;20.47;72.13;100751.34;5038023;28;20021;-71
2023/06/23 01:30:39;;;;;;;11.32;6.03;;;;;;;20.49;72.30;100748.63;5038043;28;20026;-71
2023/06/23 01:33:15;;;;;;;17.43;7.03;;;;;;;20.48;72.19;100760.25;5038244;28;20379;-71
2023/06/23 01:35:45;;;;;;;14.57;6.82;;;;;;;20.45;72.48;100757.72;5038100;28;20528;-71
2023/06/23 01:38:27;;;;;;;17.85;6.20;;;;;;;20.34;72.55;100756.28;5037988;28;20041;-71
2023/06/23 01:40:57;;;;;;;12.40;6.40;;;;;;;20.26;72.62;100758.38;5019891;28;20467;-71
2023/06/23 01:43:29;;;;;;;13.50;6.55;;;;;;;20.20;72.57;100754.13;5037879;28;20021;-71
2023/06/23 01:46:03;;;;;;;14.67;6.33;;;;;;;20.21;72.85;100749.66;5037211;28;20025;-71
2023/06/23 01:48:32;;;;;;;12.35;5.80;;;;;;;20.22;72.73;100748.72;5016801;28;20526;-71
2023/06/23 01:50:58;;;;;;;14.18;5.97;;;;;;;20.25;72.84;100751.28;5017904;28;20506;-71
2023/06/23 01:53:26;;;;;;;11.15;5.68;;;;;;;20.27;72.54;100757.44;5017849;28;20045;-71
2023/06/23 01:55:53;;;;;;;12.35;5.43;;;;;;;20.28;72.59;100756.53;5018519;28;20061;-71
2023/06/23 01:58:21;;;;;;;12.40;6.17;;;;;;;20.27;72.45;100756.59;5017623;28;20109;-71
2023/06/23 02:00:48;;;;;;;14.45;6.07;;;;;;;20.21;72.89;100755.88;5017345;28;20030;-71
2023/06/23 02:03:15;;;;;;;13.02;5.78;;;;;;;20.16;72.76;100762.34;5017681;28;20034;-71
2023/06/23 02:05:45;;;;;;;12.90;5.65;;;;;;;20.13;72.77;100757.97;5017749;28;20451;-71
2023/06/23 02:08:14;;;;;;;9.57;5.47;;;;;;;20.13;72.83;100759.75;5017473;28;20030;-71
2023/06/23 02:10:40;;;;;;;14.80;6.47;;;;;;;20.07;72.95;100755.50;5004949;28;20021;-71
2023/06/23 02:13:08;;;;;;;16.00;6.45;;;;;;;20.01;73.10;100756.59;5017166;28;20030;-71
2023/06/23 02:15:35;;;;;;;13.65;5.90;;;;;;;19.96;72.94;100761.25;5027415;28;20030;-71
2023/06/23 02:18:01;;;;;;;14.95;6.10;;;;;;;19.90;73.19;100754.28;5017290;28;20026;-71
2023/06/23 02:20:28;;;;;;;15.68;6.13;;;;;;;19.89;73.31;100755.19;5016193;28;20513;-71
2023/06/23 02:22:55;;;;;;;14.80;5.83;;;;;;;19.90;73.09;100756.94;5017216;28;20438;-71
2023/06/23 02:25:22;;;;;;;13.57;6.10;;;;;;;19.91;73.05;100763.22;5017325;28;20021;-71
2023/06/23 02:27:48;;;;;;;14.90;6.28;;;;;;;19.87;73.20;100759.72;5017097;28;20060;-71
2023/06/23 02:30:15;;;;;;;11.40;5.82;;;;;;;19.79;73.52;100749.31;5016025;28;20022;-71
2023/06/23 02:32:40;;;;;;;14.70;6.00;;;;;;;19.72;73.27;100755.78;5015966;28;20125;-71
2023/06/23 02:35:13;;;;;;;16.07;5.80;;;;;;;19.68;73.57;100762.19;5017315;28;20513;-71
2023/06/23 02:37:43;;;;;;;13.38;6.05;;;;;;;19.65;73.65;100760.47;5017113;28;20053;-71
2023/06/23 02:40:16;;;;;;;11.93;6.07;;;;;;;19.63;73.98;100764.09;5015836;28;20026;-71
2023/06/23 02:42:59;;;;;;;14.67;6.50;;;;;;;19.63;73.65;100758.75;5015563;28;20056;-71
2023/06/23 02:45:28;;;;;;;15.70;6.10;;;;;;;19.63;73.75;100756.97;5016918;28;20021;-71
2023/06/23 02:47:56;;;;;;;11.68;5.70;;;;;;;19.65;73.54;100759.59;5011459;28;20053;-71
2023/06/23 02:50:31;;;;;;;11.98;6.15;;;;;;;19.65;73.39;100762.25;5018801;28;20498;-71
2023/06/23 02:53:04;;;;;;;14.15;6.25;;;;;;;19.65;73.58;100757.78;5018954;28;20022;-71
2023/06/23 02:55:32;;;;;;;15.40;6.37;;;;;;;19.67;73.63;100767.56;5038726;28;20031;-71
2023/06/23 02:58:02;;;;;;;15.73;5.82;;;;;;;19.65;73.65;100757.78;5035871;28;20052;-71
2023/06/23 03:00:29;;;;;;;13.68;6.30;;;;;;;19.65;73.21;100762.25;5018463;28;20032;-71
2023/06/23 03:03:00;;;;;;;12.68;6.30;;;;;;;19.60;73.26;100759.75;5036518;28;20031;-71
2023/06/23 03:05:26;;;;;;;15.48;6.28;;;;;;;19.52;73.79;100767.13;5036544;28;20486;-71
2023/06/23 03:07:52;;;;;;;12.30;6.03;;;;;;;19.45;73.90;100777.19;5018840;28;20021;-71
2023/06/23 03:10:19;;;;;;;13.80;6.13;;;;;;;19.40;73.74;100768.41;5036121;28;20507;-71
2023/06/23 03:12:47;;;;;;;16.05;6.10;;;;;;;19.39;74.18;100773.81;5036441;28;20033;-71
2023/06/23 03:15:13;;;;;;;13.95;6.30;;;;;;;19.38;73.92;100770.25;5048427;28;20033;-71
2023/06/23 03:17:40;;;;;;;11.77;5.40;;;;;;;19.40;73.99;100773.75;5036176;28;20036;-71
2023/06/23 03:20:18;;;;;;;14.47;6.13;;;;;;;19.41;74.03;100767.53;5036333;28;20052;-71
2023/06/23 03:22:49;;;;;;;13.07;5.88;;;;;;;19.42;73.63;100766.59;5036473;28;20022;-71
2023/06/23 03:25:21;;;;;;;14.13;6.05;;;;;;;19.41;73.72;100772.88;5036291;28;20025;-71
2023/06/23 03:27:49;;;;;;;13.77;6.65;;;;;;;19.32;73.99;100767.81;5036262;28;20021;-71
2023/06/23 03:30:19;;;;;;;14.15;6.25;;;;;;;19.28;73.97;100771.50;5036370;28;20049;-71
2023/06/23 03:32:51;;;;;;;12.50;5.80;;;;;;;19.26;74.06;100778.69;5018747;28;20393;-71
2023/06/23 03:35:20;;;;;;;17.20;5.72;;;;;;;19.25;73.97;100777.81;5036351;28;20037;-71
2023/06/23 03:37:50;;;;;;;13.93;5.95;;;;;;;19.21;74.00;100777.06;5018561;28;20026;-71
2023/06/23 03:40:19;;;;;;;13.10;6.07;;;;;;;19.20;74.29;100777.09;5018766;28;20036;-71
2023/06/23 03:42:55;;;;;;;14.13;6.55;;;;;;;19.19;74.51;100776.22;5036029;28;20107;-71
2023/06/23 03:45:25;;;;;;;11.43;6.10;;;;;;;19.18;74.17;100782.50;5035936;28;20025;-71
2023/06/23 03:47:58;;;;;;;13.20;5.80;;;;;;;19.17;74.17;100788.75;5036182;28;20049;-71
2023/06/23 03:50:28;;;;;;;12.82;6.05;;;;;;;19.18;74.28;100790.50;5036346;28;20026;-71
2023/06/23 03:52:56;;;;;;;16.42;6.45;;;;;;;19.15;74.35;100801.25;5036286;28;20022;-71
2023/06/23 03:55:24;;;;;;;12.18;6.50;;;;;;;19.10;74.23;100787.19;5020591;28;20049;-71
2023/06/23 03:57:52;;;;;;;11.90;5.77;;;;;;;19.03;74.35;100790.97;5018304;28;20025;-71
2023/06/23 04:00:19;;;;;;;14.88;6.35;;;;;;;18.98;74.33;100787.53;5035940;28;20025;-71
2023/06/23 04:02:47;;;;;;;16.92;6.20;;;;;;;18.97;74.73;100792.00;5036177;28;20033;-71
2023/06/23 04:05:15;;;;;;;12.63;5.97;;;;;;;18.97;74.63;100794.66;5036165;28;20391;-71
2023/06/23 04:07:44;;;;;;;12.50;6.57;;;;;;;18.93;74.87;100795.69;5036463;28;20064;-71
2023/06/23 04:10:12;;;;;;;10.63;5.80;;;;;;;18.90;74.90;100795.78;5021364;28;20108;-71
2023/06/23 04:12:39;;;;;;;12.60;6.10;;;;;;;18.89;74.55;100805.56;5039809;28;20026;-71
2023/06/23 04:15:08;;;;;;;14.63;6.45;;;;;;;18.91;74.70;100808.19;5033698;28;20025;-71
2023/06/23 04:17:37;;;;;;;15.63;6.20;;;;;;;18.93;74.50;100815.25;5039631;28;20047;-71
2023/06/23 04:20:05;;;;;;;13.52;5.85;;;;;;;18.96;74.38;100816.94;5039653;28;20037;-71
2023/06/23 04:22:34;;;;;;;12.20;5.70;;;;;;;19.00;74.35;100812.41;5039950;28;20048;-71
2023/06/23 04:25:00;;;;;;;13.48;5.80;;;;;;;19.03;74.39;100817.66;5039472;28;20547;-71
2023/06/23 04:27:29;;;;;;;16.67;5.88;;;;;;;19.05;74.26;100826.50;5039538;28;20025;-71
2023/06/23 04:29:55;;;;;;;10.70;5.50;;;;;;;19.07;74.11;100821.97;5039490;28;20071;-71
2023/06/23 04:32:23;;;;;;;11.38;5.47;;;;;;;19.04;74.01;100819.41;5039639;28;20029;-71
2023/06/23 04:34:48;;;;;;;12.87;6.10;;;;;;;18.98;74.25;100814.22;5039415;28;20025;-71
2023/06/23 04:37:26;;;;;;;14.90;7.20;;;;;;;18.86;74.21;100823.47;5039421;28;20437;-71
2023/06/23 04:40:04;;;;;;;14.73;6.27;;;;;;;18.75;74.40;100819.31;5026378;28;20529;-71
2023/06/23 04:43:08;;;;;;;14.48;6.60;;;;;;;18.73;74.74;100821.16;5021403;28;20108;-71
2023/06/23 04:45:40;;;;;;;13.13;6.35;;;;;;;18.73;74.76;100826.50;5024370;28;20042;-71
2023/06/23 04:48:11;;;;;;;14.73;6.78;;;;;;;18.76;74.74;100821.06;5021206;28;20049;-71
2023/06/23 04:50:39;;;;;;;12.52;5.68;;;;;;;18.81;74.61;100834.28;5039221;28;20033;-71
2023/06/23 04:53:11;;;;;;;13.47;6.13;;;;;;;18.85;74.55;100835.06;5039226;28;20033;-71
2023/06/23 04:55:39;;;;;;;12.85;6.32;;;;;;;18.86;74.51;100832.34;5023047;28;20440;-71
2023/06/23 04:58:06;;;;;;;16.27;6.50;;;;;;;18.87;74.56;100827.91;5039005;28;20068;-71
2023/06/23 05:00:33;;;;;;;19.77;6.75;;;;;;;18.89;74.47;100834.91;5038675;28;20081;-71
2023/06/23 05:03:00;;;;;;;17.48;6.50;;;;;;;19.04;73.93;100832.75;5038889;28;20133;-71
2023/06/23 05:05:28;;;;;;;16.70;6.73;;;;;;;19.17;73.58;100822.56;5021151;28;20094;-71
2023/06/23 05:07:56;;;;;;;14.60;6.30;;;;;;;19.28;73.20;100827.56;5038929;28;20018;-71
2023/06/23 05:10:23;;;;;;;14.38;6.32;;;;;;;19.38;72.99;100833.50;5020857;28;20025;-71
2023/06/23 05:12:51;;;;;;;14.23;6.70;;;;;;;19.51;72.42;100835.72;5038646;28;20029;-71
2023/06/23 05:15:18;;;;;;;15.00;6.70;;;;;;;19.63;72.30;100834.47;5050006;28;20498;-71
2023/06/23 05:17:46;;;;;;;14.73;6.90;;;;;;;19.72;72.10;100832.41;5038586;28;20021;-71
2023/06/23 05:20:15;;;;;;;15.35;6.45;;;;;;;19.85;71.57;100840.88;5037911;28;20440;-71
2023/06/23 05:22:43;;;;;;;13.60;6.53;;;;;;;19.94;71.36;100849.50;5038484;28;20079;-71
2023/06/23 05:25:11;;;;;;;18.33;7.15;;;;;;;20.04;71.37;100843.84;5038553;28;20558;-71
2023/06/23 05:27:40;;;;;;;16.10;6.78;;;;;;;20.05;71.83;100850.94;5038421;28;20029;-71
2023/06/23 05:30:08;;;;;;;17.70;7.97;;;;;;;20.02;72.00;100849.22;5038376;28;20014;-71
2023/06/23 05:32:36;;;;;;;17.77;8.90;;;;;;;19.88;72.51;100843.44;5038559;28;20128;-71
2023/06/23 05:35:04;;;;;;;19.85;8.68;;;;;;;19.73;73.33;100852.84;5012070;28;20033;-71
2023/06/23 05:37:33;;;;;;;17.30;8.20;;;;;;;19.67;73.39;100853.94;5037852;28;20033;-71
2023/06/23 05:40:03;;;;;;;17.60;8.45;;;;;;;19.60;74.25;100853.25;5033263;28;20083;-71
2023/06/23 05:42:32;;;;;;;19.23;9.33;;;;;;;19.55;74.13;100851.66;5037038;28;20021;-71
2023/06/23 05:44:58;;;;;;;21.13;9.93;;;;;;;19.49;74.85;100853.59;5008819;28;20112;-71
2023/06/23 05:47:29;;;;;;;18.00;10.40;;;;;;;19.49;74.87;100848.25;5037882;28;20053;-71
2023/06/23 05:49:59;;;;;;;23.60;10.52;;;;;;;19.53;75.10;100846.34;5038182;28;20084;-71
2023/06/23 05:52:25;;;;;;;25.65;12.50;;;;;;;19.57;75.01;100849.81;5037955;28;20029;-71
2023/06/23 05:54:54;;;;;;;28.20;11.70;;;;;;;19.60;75.02;100855.03;5036458;28;20367;-71
2023/06/23 05:57:29;;;;;;;22.65;11.52;;;;;;;19.60;75.74;100863.06;5038704;28;20022;-71
2023/06/23 06:00:10;;;;;;;26.80;11.23;;;;;;;19.57;75.93;100860.50;5037844;28;20037;-71
2023/06/23 06:02:40;;;;;;;22.30;11.98;;;;;;;19.55;75.90;100867.69;5033024;28;20437;-71
2023/06/23 06:05:09;;;;;;;24.10;11.93;;;;;;;19.58;75.96;100864.91;5037599;28;20112;-71
2023/06/23 06:07:36;;;;;;;21.30;11.70;;;;;;;19.61;75.83;100867.47;5020128;28;20433;-71
2023/06/23 06:10:06;;;;;;;21.67;11.10;;;;;;;19.64;76.00;100860.25;5025536;28;20021;-71
2023/06/23 06:12:33;;;;;;;25.25;12.20;;;;;;;19.68;76.16;100860.16;5037486;28;20045;-71
2023/06/23 06:15:01;;;;;;;26.65;13.00;;;;;;;19.69;76.52;100862.78;5049741;28;20070;-71
2023/06/23 06:17:28;;;;;;;25.15;13.07;;;;;;;19.71;76.25;100868.06;5016150;28;20026;-71
2023/06/23 06:19:58;;;;;;;22.77;11.83;;;;;;;19.74;76.44;100874.19;5033158;28;20498;-71
2023/06/23 06:22:24;;;;;;;25.63;12.73;;;;;;;19.77;76.06;100866.06;5011465;28;20022;-71
2023/06/23 06:24:52;;;;;;;22.70;11.60;;;;;;;19.80;76.38;100873.97;5033770;28;20033;-71
2023/06/23 06:27:20;;;;;;;23.20;11.05;;;;;;;19.84;75.96;100871.19;5037308;28;20059;-71
2023/06/23 06:29:47;;;;;;;29.15;12.65;;;;;;;19.89;76.02;100877.25;5019488;28;20051;-71
2023/06/23 06:32:14;;;;;;;27.10;14.30;;;;;;;19.93;76.25;100878.97;5018632;28;20029;-70
2023/06/23 06:34:41;;;;;;;24.73;12.23;;;;;;;19.92;76.11;100877.22;5031597;28;20056;-71
2023/06/23 06:37:08;;;;;;;24.25;12.57;;;;;;;19.93;76.05;100885.16;5037197;28;20375;-71
2023/06/23 06:39:36;;;;;;;24.00;11.65;;;;;;;19.97;76.19;100891.28;5036821;28;20447;-71
2023/06/23 06:42:01;;;;;;;19.05;10.32;;;;;;;20.00;75.97;100882.28;5019049;28;20032;-71
2023/06/23 06:44:27;;;;;;;20.07;10.87;;;;;;;20.03;75.92;100880.38;5037044;28;20025;-71
2023/06/23 06:46:53;;;;;;;19.55;10.70;;;;;;;20.09;75.42;100884.66;5016399;28;20030;-71
2023/06/23 06:49:23;;;;;;;20.23;10.37;;;;;;;20.15;75.65;100888.94;5036769;28;20048;-71
2023/06/23 06:51:51;;;;;;;19.33;10.20;;;;;;;20.19;75.60;100890.56;5029395;28;20048;-71
2023/06/23 06:54:17;;;;;;;24.95;11.10;;;;;;;20.18;75.40;100895.03;5030184;28;20355;-71
2023/06/23 06:56:44;;;;;;;21.40;9.63;;;;;;;20.18;75.61;100895.03;5036059;28;20052;-73
2023/06/23 06:59:09;;;;;;;21.42;10.55;;;;;;;20.21;75.28;100897.59;5016288;28;20079;-71
2023/06/23 07:01:36;;;;;;;19.00;9.93;;;;;;;20.25;74.93;100898.38;5033659;28;20025;-73
2023/06/23 07:04:04;;;;;;;17.95;9.32;;;;;;;20.26;74.76;100892.09;5031273;28;20033;-72
2023/06/23 07:06:29;;;;;;;17.93;10.33;;;;;;;20.26;74.68;100889.44;5016597;28;20034;-71
2023/06/23 07:08:55;;;;;;;18.58;10.07;;;;;;;20.22;75.10;100891.31;5034131;28;20025;-71
2023/06/23 07:11:20;;;;;;;18.03;8.90;;;;;;;20.21;74.83;100888.72;5033681;28;20022;-71
2023/06/23 07:13:46;;;;;;;16.80;8.03;;;;;;;20.25;74.66;100885.00;5033461;28;20033;-71
2023/06/23 07:16:11;;;;;;;16.50;8.53;;;;;;;20.31;74.81;100884.78;5016059;28;20035;-71
2023/06/23 07:18:36;;;;;;;17.27;8.90;;;;;;;20.39;74.27;100884.53;5033258;28;20029;-70
2023/06/23 07:21:03;;;;;;;16.00;9.10;;;;;;;20.42;74.10;100891.56;5030342;28;20113;-70
2023/06/23 07:23:29;;;;;;;16.87;8.40;;;;;;;20.48;74.11;100900.22;5032968;28;20107;-71
2023/06/23 07:25:54;;;;;;;17.70;8.70;;;;;;;20.52;74.10;100890.31;5031885;28;20045;-71
2023/06/23 07:28:20;;;;;;;15.73;8.03;;;;;;;20.61;73.86;100892.63;5033965;28;20025;-71
2023/06/23 07:30:45;;;;;;;15.70;8.10;;;;;;;20.68;73.72;100892.44;5034659;28;20025;-71
2023/06/23 07:33:11;;;;;;;14.88;8.15;;;;;;;20.75;73.41;100891.28;5033890;28;20021;-71
2023/06/23 07:35:36;;;;;;;14.70;7.53;;;;;;;20.84;73.50;100890.09;5016595;28;20030;-71
2023/06/23 07:38:02;;;;;;;16.90;8.00;;;;;;;20.94;72.88;100889.69;5034420;28;20040;-71
2023/06/23 07:40:27;;;;;;;13.10;7.80;;;;;;;21.15;72.65;100897.84;5016346;28;20025;-71
2023/06/23 07:42:53;;;;;;;15.23;7.67;;;;;;;21.27;72.19;100900.97;5034060;28;20520;-71
2023/06/23 07:45:18;;;;;;;14.60;8.00;;;;;;;21.43;71.80;100895.88;5035585;28;20094;-71
2023/06/23 07:47:44;;;;;;;13.82;8.05;;;;;;;21.68;71.29;100895.81;5038035;28;20045;-71
2023/06/23 07:50:09;;;;;;;15.80;7.80;;;;;;;22.04;70.22;100897.91;5020216;28;20040;-71
2023/06/23 07:52:35;;;;;;;13.70;7.63;;;;;;;22.24;69.73;100885.47;5038225;28;20029;-71
2023/06/23 07:55:00;;;;;;;12.20;6.77;;;;;;;22.37;69.28;100885.81;5037557;28;21461;-71
2023/06/23 07:57:26;;;;;;;14.67;8.30;;;;;;;22.40;68.42;100879.44;5037523;28;20133;-71
2023/06/23 07:59:51;;;;;;;13.93;7.70;;;;;;;22.47;68.54;100886.31;5020276;28;20553;-71
2023/06/23 08:02:17;;;;;;;11.43;6.57;;;;;;;22.54;68.50;100881.53;5037880;28;20025;-71
2023/06/23 08:04:42;;;;;;;14.37;6.83;;;;;;;22.67;68.26;100884.53;5037456;28;20272;-71
2023/06/23 08:07:08;;;;;;;13.70;7.17;;;;;;;22.69;68.24;100878.19;5037471;28;20030;-71
2023/06/23 08:09:33;;;;;;;10.82;6.40;;;;;;;22.75;67.80;100871.63;5036889;28;20037;-71
2023/06/23 08:11:59;;;;;;;12.90;6.23;;;;;;;22.91;67.45;100872.69;5021149;28;20057;-71
2023/06/23 08:14:24;;;;;;;12.77;6.87;;;;;;;23.15;66.93;100875.16;5037561;28;20409;-71
2023/06/23 08:16:49;;;;;;;13.43;7.37;;;;;;;23.25;66.69;100864.91;5036193;28;20115;-72
2023/06/23 08:19:21;;;;;;;13.60;7.17;;;;;;;23.23;66.40;100864.91;5036930;28;20398;-72
2023/06/23 08:21:47;;;;;;;12.47;7.27;;;;;;;23.13;66.10;100871.69;5037165;28;20641;-72
2023/06/23 08:24:12;;;;;;;12.45;6.55;;;;;;;23.06;66.38;100867.56;5019271;28;20033;-72
2023/06/23 08:26:37;;;;;;;14.30;7.13;;;;;;;23.19;66.21;100870.53;5036532;28;20113;-72
2023/06/23 08:29:03;;;;;;;12.10;6.40;;;;;;;23.44;65.89;100859.50;5037205;28;20108;-71
2023/06/23 08:31:28;;;;;;;11.60;6.90;;;;;;;23.68;65.14;100861.91;5037282;28;20037;-72
2023/06/23 08:33:54;;;;;;;10.20;6.40;;;;;;;23.81;64.55;100854.09;5037072;28;20021;-71
2023/06/23 08:36:19;;;;;;;13.00;6.63;;;;;;;23.89;64.08;100859.09;5036766;28;20033;-71
2023/06/23 08:38:44;;;;;;;12.47;6.27;;;;;;;24.02;64.04;100857.59;5037563;28;20392;-71
2023/06/23 08:41:10;;;;;;;10.80;5.80;;;;;;;24.31;64.18;100854.31;5036856;28;20788;-72
2023/06/23 08:43:36;;;;;;;12.13;6.20;;;;;;;24.63;63.29;100860.66;5036658;28;20099;-72
2023/06/23 08:46:05;;;;;;;13.32;6.53;;;;;;;24.99;62.47;100857.94;5019123;28;20112;-72
2023/06/23 08:48:30;;;;;;;12.43;6.10;;;;;;;25.16;62.39;100854.28;5036027;28;20053;-71
2023/06/23 08:51:00;;;;;;;14.10;7.60;;;;;;;25.27;61.73;100861.75;5035684;28;20085;-71
2023/06/23 08:53:27;;;;;;;13.43;6.43;;;;;;;25.30;61.46;100858.88;5036320;28;20038;-71
2023/06/23 08:55:53;;;;;;;13.55;7.07;;;;;;;25.28;60.99;100861.66;5036421;28;20033;-70
2023/06/23 08:58:24;;;;;;;13.80;6.80;;;;;;;25.23;60.98;100864.63;5035326;28;20051;-71
2023/06/23 09:00:51;;;;;;;12.43;5.75;;;;;;;25.30;60.96;100865.13;5035953;28;20032;-71
2023/06/23 09:03:17;;;;;;;12.70;5.95;;;;;;;25.48;60.76;100865.97;5035089;28;20049;-71
2023/06/23 09:05:42;;;;;;;11.17;6.30;;;;;;;25.67;60.07;100861.31;5018805;28;20034;-71
2023/06/23 09:08:09;;;;;;;11.55;6.60;;;;;;;25.82;59.41;100862.25;5036368;28;20108;-71
2023/06/23 09:10:34;;;;;;;12.77;6.50;;;;;;;25.83;58.75;100859.47;5020327;28;20034;-71
2023/06/23 09:13:24;;;;;;;12.05;6.82;;;;;;;25.70;58.49;100862.03;5036438;28;20030;-71
2023/06/23 09:15:50;;;;;;;12.15;6.30;;;;;;;25.78;59.44;100865.13;5034763;28;20021;-71
2023/06/23 09:18:17;;;;;;;15.07;6.53;;;;;;;25.91;58.55;100864.41;5036303;28;20091;-71
2023/06/23 09:20:46;;;;;;;10.90;6.30;;;;;;;26.03;58.59;100865.50;5037154;28;20037;-71
2023/06/23 09:23:17;;;;;;;11.95;6.28;;;;;;;26.14;58.60;100856.75;5035538;28;20112;-71
2023/06/23 09:25:49;;;;;;;11.40;6.20;;;;;;;26.30;58.09;100860.31;5018511;28;20093;-71
2023/06/23 09:28:29;;;;;;;10.65;6.30;;;;;;;26.46;57.68;100864.78;5036276;28;20025;-71
2023/06/23 09:31:13;;;;;;;11.30;6.72;;;;;;;26.54;57.63;100859.75;5036231;28;20033;-71
2023/06/23 09:33:46;;;;;;;9.97;6.40;;;;;;;26.65;57.55;100854.56;5034612;28;20064;-71
2023/06/23 09:36:11;;;;;;;10.75;6.05;;;;;;;26.86;56.92;100862.28;5018215;28;20021;-71
2023/06/23 09:38:38;;;;;;;12.03;6.37;;;;;;;26.97;55.92;100849.94;5036218;28;20040;-71
2023/06/23 09:41:33;;;;;;;12.00;6.85;;;;;;;26.85;55.89;100857.00;5035899;28;20115;-71
2023/06/23 09:43:59;;;;;;;11.25;6.30;;;;;;;26.97;56.46;100847.25;5033967;28;20417;-71
2023/06/23 09:46:32;;;;;;;13.13;6.03;;;;;;;27.07;56.12;100846.56;5035790;28;20021;-71
2023/06/23 09:48:59;;;;;;;12.82;6.05;;;;;;;27.23;55.75;100841.00;5035880;28;20047;-71
2023/06/23 09:51:25;;;;;;;10.45;6.28;;;;;;;27.36;55.68;100845.59;5035800;28;20100;-72
2023/06/23 09:53:50;;;;;;;11.43;5.97;;;;;;;27.44;54.52;100832.47;5017792;28;20057;-71
2023/06/23 09:56:18;;;;;;;12.27;6.43;;;;;;;27.43;54.88;100837.94;5037522;28;20108;-71
2023/06/23 09:58:45;;;;;;;10.60;5.60;;;;;;;27.53;54.92;100844.53;5035808;28;20281;-71
2023/06/23 10:01:13;;;;;;;10.70;5.78;;;;;;;27.71;55.09;100844.25;5035478;28;20029;-72
2023/06/23 10:03:45;;;;;;;11.98;6.15;;;;;;;27.82;54.10;100832.69;5035584;28;20481;-71
2023/06/23 10:06:29;;;;;;;11.23;6.35;;;;;;;27.79;54.50;100840.06;5017508;28;20029;-72
2023/06/23 10:08:59;;;;;;;9.82;5.78;;;;;;;27.83;54.02;100839.84;5017032;28;20041;-72
2023/06/23 10:11:30;;;;;;;10.90;5.30;;;;;;;27.89;53.69;100829.47;5036427;28;20108;-71
2023/06/23 10:13:57;;;;;;;11.73;5.82;;;;;;;28.03;53.18;100824.97;5035054;28;20025;-71
2023/06/23 10:16:23;;;;;;;8.80;5.43;;;;;;;28.20;52.95;100823.81;5016915;28;20048;-71
2023/06/23 10:18:48;;;;;;;11.17;5.93;;;;;;;28.34;52.74;100823.72;5034791;28;20489;-72
2023/06/23 10:21:14;;;;;;;8.95;5.60;;;;;;;28.45;52.88;100827.50;5034183;28;20044;-72
2023/06/23 10:23:40;;;;;;;9.30;5.90;;;;;;;28.52;51.46;100815.25;5021092;28;20041;-72
2023/06/23 10:26:06;;;;;;;8.48;5.10;;;;;;;28.47;50.77;100822.84;5038066;28;20025;-72
2023/06/23 10:28:36;;;;;;;9.00;5.23;;;;;;;28.40;50.52;100810.72;5016886;28;20045;-72
2023/06/23 10:31:05;;;;;;;10.38;4.97;;;;;;;28.48;51.28;100813.75;5016989;28;20025;-72
2023/06/23 10:33:34;;;;;;;9.00;4.88;;;;;;;28.65;50.68;100816.13;5037304;28;20088;-72
2023/06/23 10:36:03;;;;;;;10.07;5.22;;;;;;;28.76;50.93;100822.59;5035320;28;20041;-72
2023/06/23 10:38:30;;;;;;;9.43;5.25;;;;;;;28.85;50.50;100816.56;5016567;28;20048;-72
2023/06/23 10:40:59;;;;;;;12.57;5.40;;;;;;;28.94;50.56;100807.75;5033598;28;20033;-72
2023/06/23 10:43:32;;;;;;;11.02;5.13;;;;;;;28.97;49.79;100806.66;5016604;28;20029;-71
2023/06/23 10:45:59;;;;;;;10.20;4.90;;;;;;;28.98;50.37;100811.09;5034503;28;20121;-72
2023/06/23 10:48:26;;;;;;;8.25;4.68;;;;;;;29.07;49.65;100809.56;5033065;28;20049;-71
2023/06/23 10:50:52;;;;;;;8.52;5.03;;;;;;;29.18;49.31;100815.03;5034538;28;20071;-71
2023/06/23 10:53:20;;;;;;;9.57;4.80;;;;;;;29.23;49.38;100815.56;5033636;28;20116;-71
2023/06/23 10:55:47;;;;;;;9.45;5.15;;;;;;;29.32;48.85;100810.44;5034737;28;20126;-71
2023/06/23 10:58:18;;;;;;;10.60;5.20;;;;;;;29.36;48.15;100806.50;5033772;28;20040;-71
2023/06/23 11:01:05;;;;;;;9.82;5.25;;;;;;;29.26;48.85;100813.59;5033109;28;20037;-71
2023/06/23 11:03:33;;;;;;;8.60;4.95;;;;;;;29.30;48.79;100812.38;5015743;28;20039;-71
2023/06/23 11:06:03;;;;;;;9.17;4.70;;;;;;;29.42;48.77;100810.63;5016742;28;20037;-71
2023/06/23 11:08:37;;;;;;;10.27;4.70;;;;;;;29.53;48.74;100807.09;5034449;28;20025;-71
2023/06/23 11:11:02;;;;;;;8.27;4.45;;;;;;;29.67;47.51;100806.94;5036132;28;20051;-71
2023/06/23 11:13:42;;;;;;;8.90;4.80;;;;;;;29.68;47.18;100807.81;5034380;28;20033;-72
2023/06/23 11:16:15;;;;;;;8.35;4.18;;;;;;;29.72;46.71;100802.00;5032267;28;20045;-71
2023/06/23 11:18:52;;;;;;;8.80;4.55;;;;;;;29.76;46.72;100799.94;5036379;28;20056;-71
2023/06/23 11:21:27;;;;;;;10.80;4.50;;;;;;;29.83;46.45;100789.47;5023194;28;20057;-72
2023/06/23 11:24:13;;;;;;;7.35;4.10;;;;;;;29.85;45.82;100792.91;5022909;28;20041;-72